Time;durP1;ratioP1;P1;durP2;ratioP2;P2;SDS_P1;SDS_P2;PMS_P1;PMS_P2;Temp;Humidity;BMP_temperature;BMP_pressure;BME280_temperature;BME280_humidity;BME280_pressure;Samples;Min_cycle;Max_cycle;Signal;HPM_P1;HPM_P2
2022/12/04 00:02:55;;;;;;;139.05;97.25;;;20.00;49.10;;;;;;5111550;55;21470;-30
2022/12/04 00:07:56;;;;;;;139.68;99.55;;;20.00;49.10;;;;;;4694838;59;21032;-34
2022/12/04 00:12:57;;;;;;;137.30;96.47;;;20.00;49.10;;;;;;4717029;55;21036;-36
2022/12/04 00:17:58;;;;;;;136.77;93.72;;;20.00;49.00;;;;;;4747100;55;21447;-34
2022/12/04 00:22:59;;;;;;;132.35;91.43;;;20.00;49.10;;;;;;5094166;55;21068;-32
2022/12/04 00:27:59;;;;;;;140.00;97.03;;;20.10;49.10;;;;;;4694661;59;21016;-32
2022/12/04 00:33:00;;;;;;;133.77;95.95;;;20.00;49.00;;;;;;4706701;55;21015;-32
2022/12/04 00:38:02;;;;;;;126.93;89.90;;;20.00;49.00;;;;;;4725342;55;21485;-33
2022/12/04 00:43:02;;;;;;;128.02;92.55;;;20.00;49.00;;;;;;4913737;55;21466;-33
2022/12/04 00:48:04;;;;;;;128.18;90.82;;;20.00;49.00;;;;;;4816834;55;21095;-33
2022/12/04 00:53:05;;;;;;;132.70;90.28;;;20.10;49.00;;;;;;4735995;55;20979;-33
2022/12/04 00:58:06;;;;;;;131.05;90.12;;;20.00;49.00;;;;;;4789815;55;21023;-31
2022/12/04 01:03:08;;;;;;;127.05;90.43;;;20.00;49.00;;;;;;4695048;59;21474;-31
2022/12/04 01:08:10;;;;;;;125.25;89.03;;;20.00;49.00;;;;;;4941729;55;21032;-34
2022/12/04 01:13:11;;;;;;;124.53;89.00;;;20.10;49.00;;;;;;4844801;55;21052;-33
2022/12/04 01:18:13;;;;;;;130.20;91.65;;;20.10;49.00;;;;;;4814443;55;21043;-28
2022/12/04 01:23:13;;;;;;;127.45;89.95;;;20.00;49.00;;;;;;5007905;55;21004;-34
2022/12/04 01:28:14;;;;;;;126.45;90.03;;;20.00;49.00;;;;;;4736413;55;21084;-33
2022/12/04 01:33:15;;;;;;;128.45;90.55;;;20.00;49.00;;;;;;4748456;55;21115;-34
2022/12/04 01:38:16;;;;;;;128.02;88.50;;;20.00;49.00;;;;;;4748853;55;21071;-32
2022/12/04 01:43:18;;;;;;;125.45;88.03;;;20.00;48.90;;;;;;4695076;59;21071;-34
2022/12/04 01:48:48;;;;;;;123.87;86.82;;;20.00;48.90;;;;;;4695022;59;21139;-33
2022/12/04 01:53:53;;;;;;;117.62;84.25;;;20.00;48.90;;;;;;4734632;55;21482;-32
2022/12/04 01:58:58;;;;;;;120.97;85.68;;;20.00;48.90;;;;;;4846852;55;20992;-32
2022/12/04 02:04:01;;;;;;;117.18;84.20;;;20.10;49.00;;;;;;4716818;55;21551;-33
2022/12/04 02:09:03;;;;;;;121.43;84.32;;;20.00;48.90;;;;;;4787993;55;21000;-31
2022/12/04 02:14:22;;;;;;;121.60;86.87;;;20.00;48.90;;;;;;4695575;59;21064;-33
2022/12/04 02:19:59;;;;;;;115.70;82.18;;;20.00;48.80;;;;;;5046600;55;21008;-33
2022/12/04 02:25:57;;;;;;;117.43;82.93;;;20.00;48.90;;;;;;4973108;55;21036;-32
2022/12/04 02:31:01;;;;;;;117.80;83.75;;;20.00;48.90;;;;;;4905522;55;21008;-36
2022/12/04 02:36:10;;;;;;;118.93;82.93;;;20.00;48.80;;;;;;4724441;55;21052;-34
2022/12/04 02:41:19;;;;;;;114.75;82.65;;;20.00;48.80;;;;;;4821690;55;21011;-29
2022/12/04 02:46:44;;;;;;;113.40;80.28;;;20.00;48.80;;;;;;4781996;55;21068;-34
2022/12/04 02:51:47;;;;;;;110.53;78.32;;;20.00;48.70;;;;;;5169934;55;21008;-33
2022/12/04 02:56:50;;;;;;;113.05;81.72;;;20.00;48.70;;;;;;4806450;55;21019;-34
2022/12/04 03:01:56;;;;;;;108.85;77.50;;;20.00;48.70;;;;;;4771838;55;21016;-34
2022/12/04 03:07:03;;;;;;;111.37;79.25;;;20.00;48.70;;;;;;5017913;55;21008;-35
2022/12/04 03:12:20;;;;;;;110.60;79.87;;;20.00;48.70;;;;;;4865331;55;20996;-33
2022/12/04 03:17:28;;;;;;;107.93;76.43;;;20.00;48.70;;;;;;4998027;55;21040;-34
2022/12/04 03:22:30;;;;;;;109.65;78.55;;;20.00;48.60;;;;;;5170034;55;20984;-30
2022/12/04 03:34:27;;;;;;;103.62;75.07;;;20.00;48.60;;;;;;5153627;55;21083;-33
2022/12/04 03:42:12;;;;;;;101.35;72.28;;;20.00;48.60;;;;;;4802187;55;21047;-33
2022/12/04 03:47:27;;;;;;;106.47;76.23;;;20.00;48.70;;;;;;5170407;55;21024;-32
2022/12/04 03:53:00;;;;;;;107.25;74.43;;;20.00;48.70;;;;;;5169917;55;21048;-36
2022/12/04 03:58:07;;;;;;;103.12;74.72;;;20.00;48.60;;;;;;4931685;55;20992;-36
2022/12/04 04:03:16;;;;;;;99.13;71.47;;;20.00;48.60;;;;;;4799781;55;20992;-33
2022/12/04 04:08:25;;;;;;;104.72;74.30;;;20.00;48.60;;;;;;4747139;55;21008;-33
2022/12/04 04:25:58;;;;;;;96.35;69.25;;;20.00;48.50;;;;;;4694870;55;21036;-31
2022/12/04 04:32:43;;;;;;;104.82;73.15;;;20.00;48.50;;;;;;4907341;55;21466;-36
2022/12/04 04:38:13;;;;;;;102.20;72.20;;;20.00;48.50;;;;;;4694737;59;21120;-33
2022/12/04 04:43:38;;;;;;;102.95;72.50;;;20.00;49.10;;;;;;4894636;55;21124;-35
2022/12/04 04:48:46;;;;;;;98.53;70.68;;;20.00;48.50;;;;;;5077092;55;21056;-35
2022/12/04 04:53:54;;;;;;;98.50;71.43;;;20.00;48.50;;;;;;4697366;55;21020;-35
2022/12/04 04:58:55;;;;;;;96.28;68.47;;;20.00;48.40;;;;;;5100611;55;21060;-31
2022/12/04 05:03:56;;;;;;;93.93;67.37;;;20.00;48.50;;;;;;4833621;55;21068;-33
2022/12/04 05:08:56;;;;;;;94.13;69.43;;;20.00;48.50;;;;;;4811748;55;21534;-33
2022/12/04 05:13:57;;;;;;;93.93;67.97;;;20.00;48.40;;;;;;4694652;59;21027;-32
2022/12/04 05:24:17;;;;;;;90.38;65.20;;;20.00;48.30;;;;;;4694625;55;21076;-33
2022/12/04 05:29:18;;;;;;;98.97;69.18;;;20.00;48.30;;;;;;4694271;59;21032;-31
2022/12/04 05:34:19;;;;;;;97.05;68.32;;;20.00;48.30;;;;;;4726884;55;21008;-34
2022/12/04 05:39:19;;;;;;;92.47;66.12;;;20.00;48.30;;;;;;4785177;55;21021;-32
2022/12/04 05:44:20;;;;;;;93.00;66.18;;;20.00;48.30;;;;;;4696817;55;21072;-36
2022/12/04 05:49:21;;;;;;;90.03;65.87;;;20.00;48.30;;;;;;4779498;55;21012;-34
2022/12/04 05:54:22;;;;;;;92.45;66.10;;;20.00;48.20;;;;;;4695193;59;21037;-32
2022/12/04 05:59:23;;;;;;;95.10;67.32;;;20.00;48.30;;;;;;4802526;55;21100;-35
2022/12/04 06:04:24;;;;;;;97.32;69.18;;;20.00;48.20;;;;;;4746588;55;21000;-34
2022/12/04 06:09:24;;;;;;;90.12;65.55;;;20.00;48.30;;;;;;4831032;55;21064;-32
2022/12/04 06:14:25;;;;;;;92.28;66.82;;;20.00;48.10;;;;;;5169668;55;21068;-34
2022/12/04 06:19:26;;;;;;;93.68;66.35;;;20.00;48.20;;;;;;4849550;55;21542;-33
2022/12/04 06:24:27;;;;;;;96.45;68.80;;;20.00;48.10;;;;;;4759699;55;21037;-33
2022/12/04 06:29:27;;;;;;;91.30;66.12;;;20.00;48.20;;;;;;4714806;55;21076;-34
2022/12/04 06:34:28;;;;;;;90.30;64.72;;;20.00;48.20;;;;;;4989662;55;21537;-33
2022/12/04 06:39:29;;;;;;;90.35;63.33;;;19.90;48.10;;;;;;4728661;55;21517;-34
2022/12/04 06:44:30;;;;;;;85.43;61.55;;;20.00;48.10;;;;;;4708061;55;21131;-30
2022/12/04 06:49:31;;;;;;;87.57;62.03;;;20.00;48.10;;;;;;4725427;55;21091;-30
2022/12/04 06:54:31;;;;;;;91.05;64.93;;;20.00;48.20;;;;;;4695239;59;20989;-31
2022/12/04 06:59:32;;;;;;;90.38;64.28;;;20.00;48.10;;;;;;4829849;55;21009;-30
2022/12/04 07:04:33;;;;;;;87.80;63.17;;;20.00;48.10;;;;;;4817339;55;21009;-33
2022/12/04 07:09:34;;;;;;;88.10;63.85;;;19.90;48.10;;;;;;4847245;55;21084;-28
2022/12/04 07:14:35;;;;;;;83.43;62.13;;;20.00;48.10;;;;;;4694961;55;21016;-31
2022/12/04 07:19:36;;;;;;;84.47;61.90;;;19.90;48.10;;;;;;4777438;55;21470;-34
2022/12/04 07:24:37;;;;;;;87.53;63.33;;;19.90;48.10;;;;;;4710778;55;21064;-34
2022/12/04 07:29:37;;;;;;;82.78;60.92;;;20.00;48.10;;;;;;4770994;55;21060;-31
2022/12/04 07:34:38;;;;;;;86.10;62.40;;;20.00;48.10;;;;;;4707804;55;21071;-34
2022/12/04 07:39:39;;;;;;;88.10;63.22;;;20.00;48.10;;;;;;4723294;55;21035;-29
2022/12/04 07:44:40;;;;;;;89.50;64.55;;;20.00;48.10;;;;;;4806534;55;21107;-33
2022/12/04 07:49:41;;;;;;;84.60;63.10;;;20.00;48.20;;;;;;4716724;55;21103;-32
2022/12/04 07:54:41;;;;;;;86.10;64.75;;;20.00;48.70;;;;;;4694883;59;21072;-34
2022/12/04 07:59:42;;;;;;;89.87;65.12;;;20.00;48.10;;;;;;4789162;55;21545;-34
2022/12/04 08:04:43;;;;;;;88.40;63.92;;;20.00;48.10;;;;;;4924779;55;21064;-34
2022/12/04 08:09:44;;;;;;;92.20;65.65;;;19.90;48.00;;;;;;4713490;55;21166;-28
2022/12/04 08:14:44;;;;;;;88.43;65.10;;;19.90;48.00;;;;;;4830978;55;21606;-31
2022/12/04 08:19:45;;;;;;;91.63;67.97;;;19.90;48.00;;;;;;4831134;55;21008;-29
2022/12/04 08:24:46;;;;;;;91.68;66.45;;;20.00;48.10;;;;;;4845118;55;21008;-29
2022/12/04 08:29:47;;;;;;;97.28;68.22;;;19.90;48.10;;;;;;4779141;55;21116;-29
2022/12/04 08:34:50;;;;;;;93.90;66.68;;;19.90;48.00;;;;;;4695325;59;21062;-31
2022/12/04 08:39:50;;;;;;;91.70;66.35;;;20.00;48.10;;;;;;4773887;55;21023;-27
2022/12/04 08:44:52;;;;;;;92.57;66.47;;;20.00;48.10;;;;;;5008864;55;21562;-32
2022/12/04 08:49:53;;;;;;;94.10;66.07;;;20.00;48.10;;;;;;4694623;59;21080;-32
2022/12/04 08:54:53;;;;;;;89.95;66.93;;;19.90;48.10;;;;;;4974971;55;21007;-33
2022/12/04 08:59:54;;;;;;;93.82;67.47;;;20.00;48.10;;;;;;4783422;55;21072;-27
2022/12/04 09:04:55;;;;;;;94.70;68.15;;;19.90;48.00;;;;;;4695132;59;21493;-34
2022/12/04 09:09:56;;;;;;;92.07;66.80;;;19.90;48.70;;;;;;4875917;55;21058;-30
2022/12/04 09:14:56;;;;;;;102.20;72.18;;;20.00;48.10;;;;;;4695646;55;21007;-33
2022/12/04 09:19:57;;;;;;;96.93;69.93;;;19.90;48.10;;;;;;4747468;55;21031;-35
2022/12/04 09:24:58;;;;;;;99.20;71.72;;;20.00;48.10;;;;;;4877973;55;21478;-34
2022/12/04 09:29:59;;;;;;;98.15;70.32;;;19.90;48.10;;;;;;4694965;59;21546;-31
2022/12/04 09:35:00;;;;;;;101.45;72.80;;;20.00;48.10;;;;;;4785174;55;21000;-33
2022/12/04 09:40:01;;;;;;;103.72;72.05;;;20.00;48.10;;;;;;4824872;55;21084;-33
2022/12/04 09:45:24;;;;;;;101.97;75.12;;;19.90;48.10;;;;;;4945261;55;21087;-35
2022/12/04 09:50:40;;;;;;;101.80;73.65;;;20.00;48.10;;;;;;4908730;55;21080;-34
2022/12/04 09:56:06;;;;;;;107.93;76.60;;;20.00;48.10;;;;;;4695198;59;21009;-34
2022/12/04 10:01:21;;;;;;;106.93;74.07;;;19.90;48.10;;;;;;4780156;55;20995;-33
2022/12/04 10:06:35;;;;;;;106.78;75.97;;;20.00;48.80;;;;;;4695616;59;21430;-34
2022/12/04 10:15:31;;;;;;;107.45;77.65;;;20.00;48.20;;;;;;4812435;55;21059;-26
2022/12/04 10:21:00;;;;;;;107.72;77.35;;;20.00;48.30;;;;;;4930278;55;21055;-29
2022/12/04 10:26:03;;;;;;;108.45;78.43;;;20.00;48.20;;;;;;4733940;55;21130;-33
2022/12/04 10:31:08;;;;;;;112.97;81.40;;;19.90;48.10;;;;;;4816675;55;21153;-35
2022/12/04 10:36:14;;;;;;;116.10;82.78;;;19.90;48.10;;;;;;4823651;55;21007;-34
2022/12/04 10:44:47;;;;;;;113.22;81.87;;;19.90;48.20;;;;;;4845573;55;21071;-32
2022/12/04 10:49:49;;;;;;;115.65;84.35;;;19.90;48.20;;;;;;4694549;59;21471;-33
2022/12/04 10:55:00;;;;;;;119.72;84.90;;;19.90;48.20;;;;;;5169689;55;21433;-31
2022/12/04 11:00:02;;;;;;;116.43;82.95;;;19.90;48.20;;;;;;4720259;55;20984;-33
2022/12/04 11:05:21;;;;;;;120.00;84.75;;;19.90;48.30;;;;;;4729638;55;21545;-34
2022/12/04 11:10:34;;;;;;;124.18;89.28;;;19.90;48.20;;;;;;4694510;59;21000;-32
2022/12/04 11:15:46;;;;;;;119.72;88.78;;;19.90;48.30;;;;;;4845642;55;21502;-31
2022/12/04 11:21:25;;;;;;;123.70;89.10;;;20.00;48.30;;;;;;4842972;55;21064;-35
2022/12/04 11:26:32;;;;;;;126.85;89.68;;;20.00;48.30;;;;;;5169779;55;21041;-35
2022/12/04 11:31:33;;;;;;;121.65;89.87;;;19.90;48.30;;;;;;4975431;55;21008;-34
2022/12/04 11:36:39;;;;;;;127.18;93.05;;;20.00;48.40;;;;;;4895656;55;21019;-32
2022/12/04 11:41:40;;;;;;;127.10;93.05;;;20.00;48.40;;;;;;4695124;59;21612;-31
2022/12/04 11:46:51;;;;;;;127.72;91.85;;;20.00;48.40;;;;;;4716475;55;21044;-33
2022/12/04 11:54:27;;;;;;;118.72;87.78;;;20.00;48.40;;;;;;4722882;55;21008;-27
2022/12/04 12:00:09;;;;;;;132.70;95.53;;;20.00;48.40;;;;;;4731439;55;21057;-30
2022/12/04 12:05:31;;;;;;;134.52;97.72;;;20.00;48.40;;;;;;4695230;59;21056;-32
2022/12/04 12:10:56;;;;;;;132.43;96.63;;;20.00;48.50;;;;;;4897477;55;21020;-31
2022/12/04 12:16:35;;;;;;;137.43;99.20;;;19.90;49.10;;;;;;4802747;55;21064;-27
2022/12/04 12:22:17;;;;;;;129.35;94.93;;;20.00;48.50;;;;;;4827922;55;21076;-34
2022/12/04 12:28:04;;;;;;;130.60;94.65;;;20.00;48.50;;;;;;5119409;55;21478;-29
2022/12/04 12:33:29;;;;;;;135.70;97.10;;;19.90;48.50;;;;;;4695227;59;21056;-34
2022/12/04 12:39:10;;;;;;;138.12;101.32;;;20.00;48.60;;;;;;4727219;55;21068;-35
2022/12/04 12:44:21;;;;;;;131.25;96.50;;;20.00;48.60;;;;;;4694820;59;21020;-33
2022/12/04 12:50:00;;;;;;;138.82;102.38;;;19.90;48.50;;;;;;4694472;59;21028;-32
2022/12/04 12:55:27;;;;;;;134.15;97.60;;;20.00;48.70;;;;;;4756740;55;21107;-32
2022/12/04 13:00:31;;;;;;;140.60;102.27;;;20.00;48.60;;;;;;5170384;55;21439;-29
2022/12/04 13:05:42;;;;;;;135.23;100.60;;;19.90;48.60;;;;;;4710522;55;20992;-32
2022/12/04 13:12:37;;;;;;;136.45;99.68;;;20.00;48.60;;;;;;4976916;55;21064;-34
2022/12/04 13:17:39;;;;;;;132.32;99.55;;;19.90;48.60;;;;;;4985826;55;21522;-34
2022/12/04 13:24:20;;;;;;;137.52;102.43;;;19.90;48.60;;;;;;4766353;55;21028;-34
2022/12/04 13:32:14;;;;;;;131.77;98.37;;;20.00;48.70;;;;;;4764296;55;21517;-34
2022/12/04 13:38:08;;;;;;;131.60;97.37;;;19.90;48.70;;;;;;4894465;55;21012;-35
2022/12/04 13:43:29;;;;;;;133.87;100.65;;;20.00;48.70;;;;;;4728696;55;21015;-35
2022/12/04 13:48:35;;;;;;;130.95;99.45;;;20.00;48.80;;;;;;4760974;55;21143;-34
2022/12/04 13:53:38;;;;;;;133.70;100.90;;;20.00;48.80;;;;;;5034629;55;21846;-30
2022/12/04 13:58:39;;;;;;;127.05;96.75;;;19.90;48.70;;;;;;5169999;55;21612;-34
2022/12/04 14:03:49;;;;;;;138.32;101.70;;;20.00;49.40;;;;;;4785860;55;21075;-33
2022/12/04 14:08:59;;;;;;;137.25;101.80;;;20.00;48.90;;;;;;4853695;55;21083;-31
2022/12/04 14:14:01;;;;;;;136.25;99.53;;;20.00;48.80;;;;;;4695354;59;21106;-32
2022/12/04 14:19:05;;;;;;;130.93;99.78;;;20.00;48.80;;;;;;4739993;55;21016;-35
2022/12/04 14:24:16;;;;;;;130.20;97.90;;;20.00;48.80;;;;;;4719759;55;21000;-33
2022/12/04 14:29:47;;;;;;;130.82;99.60;;;20.00;48.80;;;;;;4953669;55;21051;-29
2022/12/04 14:34:49;;;;;;;126.60;97.43;;;20.00;48.90;;;;;;4886428;55;21060;-33
2022/12/04 14:39:51;;;;;;;132.90;99.57;;;20.00;48.90;;;;;;4708350;55;21027;-32
2022/12/04 14:44:57;;;;;;;133.35;100.62;;;20.00;48.90;;;;;;4694797;59;21028;-32
2022/12/04 14:50:46;;;;;;;129.90;98.60;;;20.00;48.90;;;;;;5157195;55;21008;-36
2022/12/04 14:58:39;;;;;;;133.50;99.85;;;19.90;48.90;;;;;;5017324;55;21056;-27
2022/12/04 15:03:45;;;;;;;131.10;97.93;;;20.00;48.90;;;;;;4896453;55;21017;-34
2022/12/04 15:12:32;;;;;;;128.60;98.90;;;20.00;49.60;;;;;;4885525;55;21566;-31
2022/12/04 15:17:32;;;;;;;128.98;98.40;;;20.00;49.00;;;;;;4695144;59;21522;-31
2022/12/04 15:22:33;;;;;;;130.57;99.13;;;20.00;49.10;;;;;;5022375;55;21051;-31
2022/12/04 15:27:34;;;;;;;131.85;100.38;;;20.00;49.00;;;;;;4733303;55;21067;-31
2022/12/04 15:32:35;;;;;;;132.75;99.53;;;20.00;49.00;;;;;;4695406;59;21091;-32
2022/12/04 15:37:37;;;;;;;128.48;97.03;;;19.90;48.90;;;;;;4899929;55;21020;-30
2022/12/04 15:42:38;;;;;;;127.38;97.85;;;20.00;49.00;;;;;;4695089;59;21032;-32
2022/12/04 15:47:57;;;;;;;130.52;99.20;;;20.00;49.00;;;;;;4713645;55;21024;-29
2022/12/04 15:53:18;;;;;;;121.85;95.65;;;20.00;49.00;;;;;;4776063;55;21469;-31
2022/12/04 15:59:22;;;;;;;130.07;99.80;;;19.90;49.00;;;;;;4803579;55;21052;-29
2022/12/04 16:04:28;;;;;;;129.68;97.12;;;20.00;49.00;;;;;;4810234;55;20988;-30
2022/12/04 16:09:29;;;;;;;126.90;97.60;;;20.00;49.00;;;;;;4694949;59;21012;-25
2022/12/04 16:14:30;;;;;;;124.78;94.32;;;20.00;49.00;;;;;;4774383;55;21506;-30
2022/12/04 16:19:34;;;;;;;130.23;100.10;;;20.00;49.00;;;;;;4695159;59;21048;-27
2022/12/04 16:24:34;;;;;;;133.32;101.47;;;20.00;49.00;;;;;;4736158;55;21063;-34
2022/12/04 16:29:35;;;;;;;127.80;97.43;;;20.00;49.00;;;;;;4782231;55;20996;-33
2022/12/04 16:34:37;;;;;;;128.68;98.43;;;19.90;48.90;;;;;;4695858;55;21444;-31
2022/12/04 16:39:38;;;;;;;130.32;98.62;;;20.00;49.00;;;;;;4694720;59;21073;-35
2022/12/04 16:44:39;;;;;;;131.43;100.32;;;20.00;49.00;;;;;;5060182;55;21537;-33
2022/12/04 16:49:42;;;;;;;128.20;98.65;;;20.00;49.00;;;;;;4963794;55;21104;-35
2022/12/04 16:54:42;;;;;;;119.18;92.60;;;20.00;49.00;;;;;;4754547;55;21012;-34
2022/12/04 16:59:43;;;;;;;127.75;96.68;;;20.00;49.00;;;;;;4767361;55;21012;-34
2022/12/04 17:04:44;;;;;;;126.68;99.18;;;19.90;48.90;;;;;;4875973;55;21522;-33
2022/12/04 17:09:45;;;;;;;126.62;98.15;;;20.00;49.00;;;;;;4834702;55;21083;-31
2022/12/04 17:14:46;;;;;;;133.05;99.55;;;20.00;49.00;;;;;;4695016;59;21499;-30
2022/12/04 17:19:47;;;;;;;135.50;102.28;;;20.00;49.10;;;;;;4709080;55;21006;-35
2022/12/04 17:24:48;;;;;;;128.23;98.53;;;20.00;49.10;;;;;;4793026;55;21060;-35
2022/12/04 17:29:49;;;;;;;124.85;97.07;;;19.90;48.90;;;;;;4728132;55;21028;-31
2022/12/04 17:34:52;;;;;;;134.00;100.72;;;20.00;49.00;;;;;;5028685;55;21075;-33
2022/12/04 17:39:53;;;;;;;125.82;98.15;;;20.00;49.00;;;;;;4695023;59;21473;-29
2022/12/04 17:44:53;;;;;;;130.43;101.75;;;20.00;49.10;;;;;;4694315;56;21136;-29
2022/12/04 17:49:54;;;;;;;125.72;96.78;;;19.90;49.00;;;;;;4750795;55;21011;-34
2022/12/04 17:54:55;;;;;;;126.70;97.65;;;19.90;49.00;;;;;;4859636;55;21075;-33
2022/12/04 17:59:56;;;;;;;127.22;96.80;;;19.90;48.90;;;;;;4717777;55;21052;-35
2022/12/04 18:04:56;;;;;;;130.48;100.35;;;19.90;48.90;;;;;;4748355;55;21012;-34
2022/12/04 18:09:57;;;;;;;128.80;98.32;;;19.90;48.90;;;;;;4859543;55;21500;-34
2022/12/04 18:14:58;;;;;;;131.32;99.13;;;19.90;49.00;;;;;;4892578;55;21546;-33
2022/12/04 18:19:59;;;;;;;128.80;98.18;;;19.90;48.90;;;;;;4717527;55;21008;-34
2022/12/04 18:25:00;;;;;;;129.32;99.80;;;20.00;49.00;;;;;;5091911;55;21084;-34
2022/12/04 18:30:00;;;;;;;129.65;99.43;;;20.00;49.00;;;;;;4768875;55;21071;-32
2022/12/04 18:35:01;;;;;;;129.18;100.97;;;19.90;48.80;;;;;;4780428;55;21016;-33
2022/12/04 18:40:02;;;;;;;125.87;99.80;;;19.90;49.40;;;;;;5087992;55;21194;-29
2022/12/04 18:45:04;;;;;;;124.40;97.97;;;19.90;48.80;;;;;;4814306;55;21040;-30
2022/12/04 18:50:06;;;;;;;134.27;102.90;;;20.00;49.00;;;;;;4718376;55;21029;-32
2022/12/04 18:55:07;;;;;;;128.73;100.90;;;19.90;48.80;;;;;;4732067;55;20992;-33
2022/12/04 19:00:09;;;;;;;125.87;98.97;;;20.00;48.80;;;;;;4777358;55;21051;-32
2022/12/04 19:05:10;;;;;;;125.30;96.00;;;19.90;48.80;;;;;;4744034;55;21078;-27
2022/12/04 19:10:11;;;;;;;130.70;100.95;;;19.90;48.80;;;;;;4695005;56;21084;-32
2022/12/04 19:15:12;;;;;;;122.95;99.00;;;20.00;48.80;;;;;;4803355;55;21012;-35
2022/12/04 19:20:13;;;;;;;130.77;101.85;;;19.90;48.80;;;;;;4695055;59;21076;-33
2022/12/04 19:25:14;;;;;;;127.03;97.97;;;19.90;48.80;;;;;;4979820;55;21478;-32
2022/12/04 19:30:15;;;;;;;129.50;98.75;;;20.00;48.80;;;;;;4694534;55;21482;-34
2022/12/04 19:35:16;;;;;;;123.78;97.65;;;19.90;48.80;;;;;;4694860;59;21093;-33
2022/12/04 19:40:17;;;;;;;125.57;98.53;;;20.00;48.80;;;;;;4874717;55;21052;-36
2022/12/04 19:45:17;;;;;;;125.40;98.15;;;20.00;48.80;;;;;;4856740;55;21091;-31
2022/12/04 19:50:18;;;;;;;125.68;99.62;;;19.90;48.70;;;;;;4878905;55;21120;-29
2022/12/04 19:55:19;;;;;;;123.72;96.37;;;19.90;48.70;;;;;;4695089;59;21450;-31
2022/12/04 20:00:20;;;;;;;127.45;100.38;;;19.90;48.80;;;;;;5075193;55;21004;-33
2022/12/04 20:05:21;;;;;;;121.03;95.07;;;19.90;48.70;;;;;;4772905;55;21092;-31
2022/12/04 20:10:24;;;;;;;124.75;98.05;;;19.90;48.70;;;;;;4723736;55;21016;-32
2022/12/04 20:15:25;;;;;;;121.95;96.57;;;19.90;48.70;;;;;;4948140;55;21506;-33
2022/12/04 20:20:26;;;;;;;124.82;97.35;;;19.90;48.80;;;;;;4720527;55;21006;-32
2022/12/04 20:25:27;;;;;;;127.47;98.60;;;19.90;48.70;;;;;;5048309;55;21053;-34
2022/12/04 20:30:27;;;;;;;124.30;96.87;;;19.90;48.70;;;;;;4967526;55;21096;-32
2022/12/04 20:35:28;;;;;;;126.85;98.50;;;19.90;48.60;;;;;;4894880;55;21032;-30
2022/12/04 20:40:29;;;;;;;126.00;97.93;;;19.90;48.70;;;;;;5169515;55;20991;-32
2022/12/04 20:45:30;;;;;;;123.85;94.78;;;19.90;48.70;;;;;;5017684;55;21048;-35
2022/12/04 20:50:31;;;;;;;123.13;98.28;;;19.90;48.60;;;;;;5088383;55;21494;-30
2022/12/04 20:55:32;;;;;;;120.20;93.45;;;19.90;48.70;;;;;;4753805;55;21059;-34
2022/12/04 21:00:33;;;;;;;121.97;94.90;;;19.90;48.60;;;;;;4859523;55;21082;-32
2022/12/04 21:05:34;;;;;;;124.05;96.70;;;19.90;48.60;;;;;;4694772;59;21059;-32
2022/12/04 21:10:35;;;;;;;123.72;95.55;;;19.90;48.60;;;;;;4782087;55;21004;-33
2022/12/04 21:20:55;;;;;;;126.28;96.43;;;19.90;48.60;;;;;;4694744;55;21482;-32
2022/12/04 21:25:55;;;;;;;127.05;96.50;;;19.90;48.60;;;;;;5020661;55;21104;-30
2022/12/04 21:31:04;;;;;;;124.90;96.65;;;19.90;48.60;;;;;;4704708;55;21034;-29
2022/12/04 21:36:08;;;;;;;122.32;93.85;;;19.90;48.60;;;;;;4721083;55;21004;-34
2022/12/04 21:41:09;;;;;;;124.65;96.87;;;19.90;48.50;;;;;;4839409;55;20976;-31
2022/12/04 21:46:10;;;;;;;125.12;95.45;;;19.90;48.60;;;;;;5170294;55;21055;-29
2022/12/04 21:51:11;;;;;;;123.43;95.30;;;19.90;48.50;;;;;;5001419;55;21007;-32
2022/12/04 21:56:12;;;;;;;119.37;93.28;;;19.90;48.60;;;;;;5039047;55;21008;-32
2022/12/04 22:01:15;;;;;;;124.90;95.53;;;19.90;48.50;;;;;;4884906;55;20993;-34
2022/12/04 22:06:16;;;;;;;121.65;93.00;;;19.90;48.50;;;;;;4781402;55;21007;-33
2022/12/04 22:11:18;;;;;;;121.65;94.82;;;19.90;48.50;;;;;;4694767;59;21068;-34
2022/12/04 22:16:21;;;;;;;124.70;94.25;;;19.90;48.50;;;;;;4695507;59;21068;-33
2022/12/04 22:21:23;;;;;;;122.82;94.15;;;19.90;48.50;;;;;;5169966;55;21522;-34
2022/12/04 22:26:25;;;;;;;125.53;96.57;;;19.90;48.50;;;;;;5021974;55;21469;-32
2022/12/04 22:31:27;;;;;;;126.28;97.15;;;19.90;48.50;;;;;;4717374;55;21016;-36
2022/12/04 22:36:30;;;;;;;129.00;96.72;;;19.90;48.50;;;;;;4745389;55;21009;-35
2022/12/04 22:41:31;;;;;;;127.80;97.43;;;19.90;48.50;;;;;;4819507;55;21092;-34
2022/12/04 22:46:33;;;;;;;126.32;95.18;;;19.90;48.50;;;;;;5169650;55;21055;-34
2022/12/04 22:51:33;;;;;;;125.20;94.68;;;19.90;48.50;;;;;;4879005;55;21024;-36
2022/12/04 22:56:34;;;;;;;123.10;94.40;;;19.90;48.50;;;;;;4920856;55;21081;-30
2022/12/04 23:01:35;;;;;;;121.00;91.35;;;19.90;48.50;;;;;;4746007;55;21462;-34
2022/12/04 23:06:36;;;;;;;121.45;92.72;;;19.90;48.50;;;;;;4811981;55;21020;-34
2022/12/04 23:11:37;;;;;;;122.25;93.03;;;19.90;48.40;;;;;;4739644;55;21060;-32
2022/12/04 23:16:38;;;;;;;125.20;96.50;;;19.90;48.40;;;;;;4714494;55;21012;-34
2022/12/04 23:21:39;;;;;;;129.57;98.07;;;19.90;48.40;;;;;;4783612;55;20995;-30
2022/12/04 23:26:44;;;;;;;128.07;97.37;;;19.90;48.40;;;;;;4901211;55;21068;-28
2022/12/04 23:31:45;;;;;;;126.57;94.20;;;19.90;48.40;;;;;;4845648;55;20989;-34
2022/12/04 23:36:45;;;;;;;126.97;94.87;;;19.90;48.40;;;;;;4695478;59;21470;-35
2022/12/04 23:41:46;;;;;;;119.50;91.22;;;19.90;48.40;;;;;;4974188;55;21033;-32
2022/12/04 23:46:47;;;;;;;131.12;97.18;;;19.90;48.40;;;;;;4695501;59;21040;-33
2022/12/04 23:51:48;;;;;;;125.70;95.65;;;19.90;48.40;;;;;;4694366;59;21558;-26
2022/12/04 23:56:49;;;;;;;128.50;97.68;;;19.90;48.30;;;;;;4703967;55;21467;-28
